Time;durP1;ratioP1;P1;durP2;ratioP2;P2;SDS_P1;SDS_P2;PMS_P1;PMS_P2;Temp;Humidity;BMP_temperature;BMP_pressure;BME280_temperature;BME280_humidity;BME280_pressure;Samples;Min_cycle;Max_cycle;Signal;HPM_P1;HPM_P2
2023/07/11 00:00:58;;;;;;;3.25;2.20;;;19.90;99.90;;;;;;5054902;28;20048;-64
2023/07/11 00:03:26;;;;;;;4.65;2.50;;;19.90;99.90;;;;;;5072107;28;20052;-65
2023/07/11 00:06:05;;;;;;;5.38;2.60;;;19.90;99.90;;;;;;5037408;28;20056;-64
2023/07/11 00:08:36;;;;;;;7.38;2.72;;;19.90;99.90;;;;;;5053790;28;20056;-63
2023/07/11 00:11:05;;;;;;;5.70;2.70;;;19.90;99.90;;;;;;5071908;28;20048;-64
2023/07/11 00:13:32;;;;;;;5.80;2.80;;;19.90;99.90;;;;;;5071863;28;20151;-64
2023/07/11 00:16:04;;;;;;;5.22;2.80;;;19.90;99.90;;;;;;5072003;28;20457;-64
2023/07/11 00:18:30;;;;;;;6.32;2.70;;;19.90;99.90;;;;;;5071843;28;20044;-65
2023/07/11 00:20:57;;;;;;;6.82;3.20;;;19.90;99.90;;;;;;5071227;28;20453;-65
2023/07/11 00:23:24;;;;;;;6.78;2.97;;;19.90;99.90;;;;;;5071962;28;20114;-64
2023/07/11 00:25:50;;;;;;;6.60;4.00;;;19.90;99.90;;;;;;5072198;28;20063;-64
2023/07/11 00:28:18;;;;;;;7.30;3.42;;;19.80;99.90;;;;;;5071390;28;20080;-65
2023/07/11 00:30:44;;;;;;;7.70;4.13;;;19.70;99.90;;;;;;5071938;28;20048;-65
2023/07/11 00:33:11;;;;;;;5.90;3.20;;;19.60;99.90;;;;;;5071388;28;20613;-65
2023/07/11 00:35:38;;;;;;;5.88;3.70;;;19.50;99.90;;;;;;5085260;28;20052;-64
2023/07/11 00:38:06;;;;;;;5.97;3.55;;;19.50;99.90;;;;;;5095439;28;20320;-63
2023/07/11 00:40:46;;;;;;;4.97;3.30;;;19.50;99.90;;;;;;5095624;28;20040;-64
2023/07/11 00:43:18;;;;;;;6.95;3.65;;;19.50;99.90;;;;;;5096041;28;20114;-63
2023/07/11 00:46:02;;;;;;;4.10;3.13;;;19.60;99.90;;;;;;5077737;28;20039;-65
2023/07/11 00:48:33;;;;;;;7.25;3.58;;;19.60;99.90;;;;;;5095376;28;20059;-64
2023/07/11 00:51:00;;;;;;;8.35;3.70;;;19.60;99.90;;;;;;5077205;28;20479;-65
2023/07/11 00:53:28;;;;;;;4.72;3.40;;;19.60;99.90;;;;;;5061324;28;20044;-64
2023/07/11 00:56:01;;;;;;;5.95;3.58;;;19.60;99.90;;;;;;5095640;28;20044;-63
2023/07/11 00:58:32;;;;;;;9.07;3.95;;;19.60;99.90;;;;;;5095190;28;20583;-64
2023/07/11 01:01:01;;;;;;;6.80;3.47;;;19.60;99.90;;;;;;5094724;28;20051;-64
2023/07/11 01:03:28;;;;;;;7.35;3.88;;;19.60;99.90;;;;;;5077276;28;20426;-64
2023/07/11 01:05:56;;;;;;;4.82;3.72;;;19.60;99.90;;;;;;5095299;28;20052;-63
2023/07/11 01:08:24;;;;;;;6.80;4.00;;;19.40;99.90;;;;;;5077378;28;20044;-65
2023/07/11 01:10:50;;;;;;;7.80;3.90;;;19.40;99.90;;;;;;5094351;28;20048;-64
2023/07/11 01:13:16;;;;;;;6.05;3.63;;;19.30;99.90;;;;;;5095390;28;20101;-65
2023/07/11 01:15:43;;;;;;;7.53;3.55;;;19.20;99.90;;;;;;5077438;28;20417;-64
2023/07/11 01:18:12;;;;;;;4.57;3.53;;;19.30;99.90;;;;;;5094778;28;20052;-64
2023/07/11 01:20:41;;;;;;;5.50;3.63;;;19.30;99.90;;;;;;5077506;28;20040;-63
2023/07/11 01:23:11;;;;;;;8.27;4.40;;;19.20;99.90;;;;;;5095384;28;20052;-65
2023/07/11 01:25:38;;;;;;;5.50;3.58;;;19.20;99.90;;;;;;5077080;28;20109;-65
2023/07/11 01:28:05;;;;;;;6.00;3.38;;;19.20;99.90;;;;;;5076968;28;20109;-65
2023/07/11 01:30:35;;;;;;;6.55;3.78;;;19.20;99.90;;;;;;5094304;28;20044;-63
2023/07/11 01:33:05;;;;;;;4.95;3.25;;;19.30;99.90;;;;;;5076178;28;20453;-64
2023/07/11 01:35:31;;;;;;;7.50;4.18;;;19.30;99.90;;;;;;5094780;28;20060;-63
2023/07/11 01:37:58;;;;;;;7.32;4.28;;;19.20;99.90;;;;;;5094752;28;20063;-64
2023/07/11 01:40:24;;;;;;;5.07;3.95;;;19.20;99.90;;;;;;5094753;28;20044;-64
2023/07/11 01:42:51;;;;;;;7.30;3.75;;;19.10;99.90;;;;;;5094881;28;20055;-64
2023/07/11 01:45:17;;;;;;;6.60;4.03;;;19.10;99.90;;;;;;5094081;28;20048;-64
2023/07/11 01:47:48;;;;;;;5.78;3.90;;;19.10;99.90;;;;;;5076398;28;20353;-64
2023/07/11 01:50:15;;;;;;;7.60;3.95;;;19.00;99.90;;;;;;5075855;28;20066;-65
2023/07/11 01:52:44;;;;;;;7.22;4.15;;;19.00;99.90;;;;;;5076992;28;20048;-64
2023/07/11 01:55:11;;;;;;;6.80;4.10;;;19.10;99.90;;;;;;5088354;28;20056;-64
2023/07/11 01:57:38;;;;;;;5.28;4.18;;;18.90;99.90;;;;;;5082753;28;20105;-65
2023/07/11 02:00:08;;;;;;;7.32;4.18;;;19.10;99.90;;;;;;5067062;28;20486;-64
2023/07/11 02:02:34;;;;;;;6.25;4.07;;;19.00;99.90;;;;;;5067404;28;20051;-64
2023/07/11 02:05:00;;;;;;;8.27;4.18;;;19.00;99.90;;;;;;5039971;28;20125;-64
2023/07/11 02:07:28;;;;;;;6.68;4.05;;;19.00;99.90;;;;;;5073908;28;20052;-64
2023/07/11 02:09:54;;;;;;;5.50;4.30;;;19.00;99.90;;;;;;5073855;28;20052;-65
2023/07/11 02:12:23;;;;;;;6.18;3.78;;;19.00;99.90;;;;;;5076212;28;20044;-64
2023/07/11 02:14:49;;;;;;;6.97;4.43;;;18.90;99.90;;;;;;5085244;28;20048;-64
2023/07/11 02:17:16;;;;;;;7.20;4.13;;;18.90;99.90;;;;;;5064175;28;20040;-64
2023/07/11 02:19:44;;;;;;;6.88;4.15;;;18.80;99.90;;;;;;5081198;28;20097;-64
2023/07/11 02:22:11;;;;;;;8.40;4.30;;;18.80;99.90;;;;;;5083799;28;20053;-64
2023/07/11 02:24:41;;;;;;;6.50;4.20;;;18.80;99.90;;;;;;5085315;28;20040;-64
2023/07/11 02:27:08;;;;;;;7.72;4.13;;;18.80;99.90;;;;;;5068785;28;20051;-64
2023/07/11 02:29:36;;;;;;;6.13;4.18;;;18.80;99.90;;;;;;5086647;28;20102;-64
2023/07/11 02:32:07;;;;;;;9.13;4.80;;;18.80;99.90;;;;;;5083892;28;20047;-65
2023/07/11 02:34:33;;;;;;;6.50;4.32;;;18.80;99.90;;;;;;5077124;28;20444;-64
2023/07/11 02:37:00;;;;;;;6.05;4.10;;;18.70;99.90;;;;;;5035840;28;20049;-63
2023/07/11 02:39:26;;;;;;;6.05;4.13;;;18.70;99.90;;;;;;5053038;28;20122;-64
2023/07/11 02:41:53;;;;;;;5.55;4.22;;;18.70;99.90;;;;;;5068728;28;20106;-64
2023/07/11 02:44:19;;;;;;;8.50;4.88;;;18.70;99.90;;;;;;5073378;28;20044;-64
2023/07/11 02:46:45;;;;;;;7.63;5.10;;;18.70;99.90;;;;;;5073367;28;20052;-64
2023/07/11 02:49:12;;;;;;;6.00;3.97;;;18.60;99.90;;;;;;5055220;28;20048;-65
2023/07/11 02:51:39;;;;;;;5.57;4.05;;;18.60;99.90;;;;;;5038960;28;20049;-63
2023/07/11 02:54:06;;;;;;;6.32;4.47;;;18.50;99.90;;;;;;5073453;28;20170;-65
2023/07/11 02:56:34;;;;;;;5.88;3.63;;;18.50;99.90;;;;;;5055367;28;20414;-65
2023/07/11 02:59:01;;;;;;;7.85;3.80;;;18.50;99.90;;;;;;5055240;28;20421;-65
2023/07/11 03:01:32;;;;;;;6.38;3.95;;;18.40;99.90;;;;;;5038844;28;20506;-63
2023/07/11 03:03:58;;;;;;;7.50;4.43;;;18.50;99.90;;;;;;5072746;28;20087;-64
2023/07/11 03:06:25;;;;;;;6.38;4.60;;;18.50;99.90;;;;;;5072561;28;20063;-64
2023/07/11 03:08:51;;;;;;;8.00;4.82;;;18.40;99.90;;;;;;5054632;28;20067;-64
2023/07/11 03:11:17;;;;;;;5.88;4.13;;;18.40;99.90;;;;;;5072399;28;20048;-64
2023/07/11 03:13:44;;;;;;;6.68;4.45;;;18.40;99.90;;;;;;5072585;28;20110;-64
2023/07/11 03:16:10;;;;;;;6.90;4.43;;;18.50;99.90;;;;;;5054969;28;20454;-64
2023/07/11 03:18:36;;;;;;;8.88;4.70;;;18.40;99.90;;;;;;5072334;28;20051;-63
2023/07/11 03:21:02;;;;;;;7.05;4.70;;;18.40;99.90;;;;;;5072244;28;20106;-64
2023/07/11 03:23:31;;;;;;;5.95;4.40;;;18.40;99.90;;;;;;5072708;28;20052;-64
2023/07/11 03:25:58;;;;;;;6.47;4.65;;;18.30;99.90;;;;;;5072528;28;20078;-64
2023/07/11 03:28:27;;;;;;;6.97;4.95;;;18.40;99.90;;;;;;5054300;28;20106;-63
2023/07/11 03:30:53;;;;;;;7.85;4.38;;;18.30;99.90;;;;;;5072327;28;20045;-64
2023/07/11 03:33:20;;;;;;;7.32;4.88;;;18.30;99.90;;;;;;5054475;28;20502;-64
2023/07/11 03:35:52;;;;;;;7.88;5.20;;;18.30;99.90;;;;;;5071952;28;20056;-64
2023/07/11 03:38:19;;;;;;;7.25;4.60;;;18.30;99.90;;;;;;5071949;28;20044;-65
2023/07/11 03:40:50;;;;;;;8.35;4.78;;;18.20;99.90;;;;;;5054853;28;20049;-65
2023/07/11 03:43:16;;;;;;;6.60;4.90;;;18.10;99.90;;;;;;5071994;28;20052;-64
2023/07/11 03:45:47;;;;;;;8.00;5.53;;;18.10;99.90;;;;;;5071889;28;20067;-64
2023/07/11 03:48:15;;;;;;;7.53;4.95;;;18.10;99.90;;;;;;5071988;28;20045;-64
2023/07/11 03:50:42;;;;;;;7.93;5.22;;;18.00;99.90;;;;;;5054065;28;20056;-64
2023/07/11 03:53:09;;;;;;;8.75;5.35;;;18.00;99.90;;;;;;5071825;28;20059;-63
2023/07/11 03:55:35;;;;;;;8.63;5.18;;;18.00;99.90;;;;;;5072173;28;20102;-64
2023/07/11 03:58:05;;;;;;;8.07;5.30;;;18.00;99.90;;;;;;5054185;28;20052;-64
2023/07/11 04:00:32;;;;;;;8.10;6.20;;;18.00;99.90;;;;;;5054586;28;20183;-64
2023/07/11 04:02:59;;;;;;;8.30;6.13;;;18.00;99.90;;;;;;5072314;28;20063;-64
2023/07/11 04:05:25;;;;;;;9.02;5.80;;;18.10;99.90;;;;;;5072189;28;20060;-65
2023/07/11 04:07:51;;;;;;;9.35;6.25;;;18.10;99.90;;;;;;5071750;28;20052;-64
2023/07/11 04:10:18;;;;;;;8.93;5.88;;;18.20;99.90;;;;;;5070668;28;20056;-63
2023/07/11 04:12:48;;;;;;;9.88;6.10;;;18.20;99.90;;;;;;5071778;28;20040;-65
2023/07/11 04:15:16;;;;;;;8.30;5.63;;;18.20;99.90;;;;;;5037946;28;20457;-65
2023/07/11 04:17:42;;;;;;;10.10;6.95;;;18.30;99.90;;;;;;5071636;28;20132;-64
2023/07/11 04:20:10;;;;;;;10.20;6.55;;;18.30;99.90;;;;;;5071379;28;20464;-63
2023/07/11 04:22:39;;;;;;;9.15;5.95;;;18.30;99.90;;;;;;5050620;28;20115;-64
2023/07/11 04:25:06;;;;;;;8.27;6.47;;;18.30;99.90;;;;;;5018068;28;20107;-65
2023/07/11 04:27:36;;;;;;;10.55;6.43;;;18.30;99.90;;;;;;5050869;28;20378;-64
2023/07/11 04:30:03;;;;;;;8.95;6.53;;;18.30;99.90;;;;;;5051785;28;20063;-64
2023/07/11 04:32:33;;;;;;;10.02;6.85;;;18.40;99.90;;;;;;5054346;28;20044;-64
2023/07/11 04:35:01;;;;;;;9.85;6.80;;;18.40;99.90;;;;;;5058836;28;20408;-64
2023/07/11 04:37:27;;;;;;;9.63;7.03;;;18.40;99.90;;;;;;5091495;28;20368;-64
2023/07/11 04:39:54;;;;;;;11.25;6.75;;;18.50;99.90;;;;;;5073806;28;20433;-64
2023/07/11 04:42:20;;;;;;;10.90;7.00;;;18.50;99.90;;;;;;5091197;28;20048;-65
2023/07/11 04:44:46;;;;;;;10.00;7.10;;;18.60;99.90;;;;;;5087192;28;20523;-64
2023/07/11 04:47:16;;;;;;;9.55;6.90;;;18.60;99.90;;;;;;5077305;28;20522;-65
2023/07/11 04:49:44;;;;;;;8.55;6.80;;;18.60;99.90;;;;;;5062076;28;20057;-64
2023/07/11 04:52:11;;;;;;;12.23;7.07;;;18.70;99.90;;;;;;5080716;28;20110;-64
2023/07/11 04:54:37;;;;;;;10.13;7.32;;;18.70;99.90;;;;;;5077875;28;20046;-64
2023/07/11 04:57:04;;;;;;;9.10;7.15;;;18.70;99.90;;;;;;5086885;28;20060;-64
2023/07/11 04:59:30;;;;;;;11.55;7.18;;;18.80;99.90;;;;;;5091574;28;20049;-65
2023/07/11 05:01:56;;;;;;;9.90;7.80;;;19.00;99.90;;;;;;5089838;28;20044;-64
2023/07/11 05:04:25;;;;;;;10.73;7.32;;;19.50;99.90;;;;;;5091546;28;20121;-64
2023/07/11 05:06:51;;;;;;;11.10;6.82;;;20.30;99.90;;;;;;5091173;28;20052;-64
2023/07/11 05:09:17;;;;;;;11.65;7.75;;;21.20;99.90;;;;;;5091355;28;20044;-65
2023/07/11 05:11:44;;;;;;;8.93;7.28;;;21.80;99.90;;;;;;5081966;28;20048;-63
2023/07/11 05:14:10;;;;;;;8.50;7.07;;;22.30;99.90;;;;;;5071242;28;20058;-65
2023/07/11 05:16:36;;;;;;;10.80;7.25;;;22.50;99.90;;;;;;5081306;28;20113;-65
2023/07/11 05:19:05;;;;;;;10.43;6.35;;;22.70;99.90;;;;;;5060613;28;20364;-64
2023/07/11 05:21:32;;;;;;;9.00;6.40;;;23.10;99.90;;;;;;5050137;28;20472;-65
2023/07/11 05:24:01;;;;;;;10.13;7.00;;;23.60;99.90;;;;;;5056828;28;20487;-65
2023/07/11 05:26:30;;;;;;;10.82;6.43;;;23.90;99.90;;;;;;5074674;28;20064;-64
2023/07/11 05:28:56;;;;;;;10.52;7.07;;;24.20;99.90;;;;;;5090861;28;20121;-65
2023/07/11 05:31:25;;;;;;;10.10;6.82;;;24.20;99.90;;;;;;5093417;28;20600;-66
2023/07/11 05:33:53;;;;;;;8.95;5.75;;;24.30;99.90;;;;;;5075573;28;20380;-65
2023/07/11 05:36:33;;;;;;;8.48;6.82;;;24.80;99.90;;;;;;5094417;28;20048;-65
2023/07/11 05:39:14;;;;;;;9.95;6.47;;;25.60;99.90;;;;;;5094574;28;20058;-66
2023/07/11 05:41:51;;;;;;;9.90;6.40;;;25.90;99.90;;;;;;5076537;28;20117;-66
2023/07/11 05:44:19;;;;;;;10.00;6.32;;;26.40;99.80;;;;;;5094731;28;20052;-66
2023/07/11 05:46:45;;;;;;;9.60;5.78;;;26.10;99.90;;;;;;5094763;28;20109;-65
2023/07/11 05:49:13;;;;;;;10.07;6.22;;;25.70;99.90;;;;;;5094107;28;20105;-66
2023/07/11 05:51:39;;;;;;;8.00;5.80;;;25.40;99.90;;;;;;5055584;28;20541;-66
2023/07/11 05:54:07;;;;;;;7.28;5.85;;;25.50;99.90;;;;;;5056610;28;20068;-66
2023/07/11 05:56:35;;;;;;;9.63;6.45;;;25.90;99.90;;;;;;5039913;28;20059;-66
2023/07/11 05:59:01;;;;;;;10.98;5.97;;;26.50;99.90;;;;;;5039263;28;20048;-67
2023/07/11 06:01:30;;;;;;;8.80;6.13;;;26.40;99.90;;;;;;5084202;28;20044;-66
2023/07/11 06:04:12;;;;;;;10.85;6.53;;;26.00;99.90;;;;;;5075883;28;20048;-66
2023/07/11 06:06:43;;;;;;;8.13;5.88;;;25.80;99.90;;;;;;5059769;28;20511;-66
2023/07/11 06:09:16;;;;;;;8.65;6.10;;;25.50;99.90;;;;;;5093790;28;20047;-66
2023/07/11 06:11:47;;;;;;;8.90;6.38;;;25.80;99.90;;;;;;5075944;28;20369;-66
2023/07/11 06:14:14;;;;;;;10.07;5.95;;;25.90;99.90;;;;;;5093365;28;20357;-66
2023/07/11 06:16:41;;;;;;;7.75;6.05;;;26.00;99.90;;;;;;5076116;28;20040;-66
2023/07/11 06:19:09;;;;;;;8.18;6.15;;;25.80;99.90;;;;;;5075547;28;20526;-66
2023/07/11 06:21:35;;;;;;;7.53;6.00;;;25.80;99.90;;;;;;5075376;28;20048;-66
2023/07/11 06:24:01;;;;;;;8.57;6.35;;;25.60;99.90;;;;;;5076025;28;20060;-65
2023/07/11 06:26:28;;;;;;;10.75;6.50;;;25.20;99.90;;;;;;5075818;28;20526;-66
2023/07/11 06:28:55;;;;;;;7.55;5.65;;;24.90;99.90;;;;;;5075144;28;20062;-66
2023/07/11 06:31:22;;;;;;;7.53;6.03;;;24.60;99.90;;;;;;5075145;28;20059;-65
2023/07/11 06:33:50;;;;;;;12.18;7.03;;;24.30;99.90;;;;;;5075154;28;20048;-66
2023/07/11 06:36:16;;;;;;;8.98;6.75;;;24.10;99.90;;;;;;5075270;28;20048;-66
2023/07/11 06:38:42;;;;;;;7.93;6.45;;;23.90;99.90;;;;;;5074799;28;20036;-66
2023/07/11 06:41:08;;;;;;;8.98;6.47;;;23.70;99.90;;;;;;5075003;28;20059;-66
2023/07/11 06:43:35;;;;;;;9.40;6.30;;;23.80;99.90;;;;;;5075011;28;20058;-66
2023/07/11 06:46:02;;;;;;;8.88;6.57;;;24.10;99.90;;;;;;5092486;28;20063;-66
2023/07/11 06:48:31;;;;;;;8.75;6.18;;;24.30;99.90;;;;;;5058379;28;20177;-65
2023/07/11 06:51:03;;;;;;;11.63;7.07;;;24.30;99.90;;;;;;5074906;28;20101;-65
2023/07/11 06:53:32;;;;;;;9.30;6.53;;;24.50;99.90;;;;;;5058290;28;20494;-66
2023/07/11 06:55:58;;;;;;;9.55;6.68;;;25.00;99.90;;;;;;5075302;28;20101;-66
2023/07/11 06:58:26;;;;;;;7.28;5.80;;;25.60;99.90;;;;;;5074834;28;20055;-66
2023/07/11 07:01:04;;;;;;;10.05;6.00;;;26.00;99.90;;;;;;5074543;28;20044;-66
2023/07/11 07:03:31;;;;;;;8.90;6.05;;;25.70;99.90;;;;;;5074307;28;20052;-65
2023/07/11 07:06:09;;;;;;;7.35;5.55;;;25.40;99.90;;;;;;5074740;28;20082;-65
2023/07/11 07:08:35;;;;;;;7.90;6.07;;;25.10;99.90;;;;;;5092890;28;20059;-65
2023/07/11 07:11:02;;;;;;;7.65;5.82;;;24.90;99.90;;;;;;5058252;28;20492;-66
2023/07/11 07:13:31;;;;;;;8.68;5.13;;;25.10;99.90;;;;;;5074366;28;20421;-65
2023/07/11 07:15:59;;;;;;;8.45;5.50;;;25.00;99.90;;;;;;5092771;28;20044;-65
2023/07/11 07:18:35;;;;;;;8.30;5.38;;;24.90;99.90;;;;;;5074193;28;20105;-65
2023/07/11 07:21:03;;;;;;;7.82;4.75;;;25.20;99.90;;;;;;5074278;28;20048;-65
2023/07/11 07:23:36;;;;;;;6.38;5.32;;;25.20;99.90;;;;;;5074326;28;20058;-66
2023/07/11 07:26:04;;;;;;;10.23;5.20;;;25.20;99.90;;;;;;5074403;28;20075;-66
2023/07/11 07:28:32;;;;;;;10.32;4.82;;;25.40;99.90;;;;;;5092015;28;20052;-65
2023/07/11 07:30:59;;;;;;;8.85;5.18;;;25.40;99.90;;;;;;5092380;28;20055;-65
2023/07/11 07:33:26;;;;;;;7.10;4.40;;;25.60;99.90;;;;;;5091939;28;20364;-65
2023/07/11 07:36:04;;;;;;;5.25;4.15;;;25.80;99.90;;;;;;5074097;28;20052;-66
2023/07/11 07:38:32;;;;;;;8.27;3.83;;;26.10;99.90;;;;;;5091707;28;20686;-66
2023/07/11 07:41:02;;;;;;;7.45;4.40;;;26.40;99.90;;;;;;5092061;28;20066;-66
2023/07/11 07:43:30;;;;;;;7.22;4.53;;;26.60;99.90;;;;;;5091354;28;20044;-66
2023/07/11 07:45:59;;;;;;;9.18;4.18;;;26.70;99.90;;;;;;5092267;28;20048;-66
2023/07/11 07:48:27;;;;;;;5.88;4.20;;;26.80;99.90;;;;;;5073801;28;20132;-65
2023/07/11 07:51:11;;;;;;;8.70;4.20;;;27.00;99.90;;;;;;5073848;28;20048;-66
2023/07/11 07:53:38;;;;;;;7.78;4.47;;;27.00;99.90;;;;;;5074226;28;20044;-66
2023/07/11 07:56:17;;;;;;;7.60;4.07;;;27.00;99.60;;;;;;5075353;28;20044;-66
2023/07/11 07:58:45;;;;;;;6.65;3.97;;;27.20;99.50;;;;;;5057123;28;20131;-66
2023/07/11 08:01:14;;;;;;;7.05;3.50;;;27.20;99.30;;;;;;5091841;28;20082;-65
2023/07/11 08:03:40;;;;;;;8.27;3.75;;;27.60;99.30;;;;;;5041173;28;20069;-66
2023/07/11 08:06:11;;;;;;;5.60;3.75;;;27.60;98.90;;;;;;5092080;28;20066;-66
2023/07/11 08:08:39;;;;;;;8.23;3.53;;;27.50;98.60;;;;;;5073778;28;20040;-66
2023/07/11 08:11:09;;;;;;;;;;;27.70;98.80;;;;;;5058320;28;20131;-66
2023/07/11 08:13:36;;;;;;;9.27;3.25;;;27.50;98.40;;;;;;5091917;28;19981;-66
2023/07/11 08:16:02;;;;;;;5.65;3.30;;;27.70;98.80;;;;;;5057712;28;20052;-66
2023/07/11 08:18:29;;;;;;;5.85;3.30;;;27.90;98.40;;;;;;5056498;28;20051;-66
2023/07/11 08:20:55;;;;;;;7.38;3.42;;;28.20;98.10;;;;;;5073695;28;20055;-66
2023/07/11 08:23:23;;;;;;;6.93;3.47;;;28.30;98.30;;;;;;5091824;28;20040;-66
2023/07/11 08:25:53;;;;;;;7.13;2.95;;;28.10;97.80;;;;;;5073752;28;20044;-66
2023/07/11 08:28:20;;;;;;;7.88;3.70;;;28.10;97.70;;;;;;5073268;28;20048;-66
2023/07/11 08:30:47;;;;;;;6.45;3.40;;;28.20;97.90;;;;;;5056304;28;20040;-66
2023/07/11 08:33:14;;;;;;;5.63;3.13;;;28.20;97.80;;;;;;5073897;28;20052;-66
2023/07/11 08:35:41;;;;;;;5.88;3.40;;;28.10;97.90;;;;;;5073858;28;20114;-66
2023/07/11 08:38:11;;;;;;;6.25;3.53;;;28.30;98.20;;;;;;5073342;28;20048;-66
2023/07/11 08:40:45;;;;;;;7.50;3.60;;;28.30;98.00;;;;;;5073516;28;20051;-67
2023/07/11 08:43:16;;;;;;;5.00;3.17;;;28.40;97.80;;;;;;5057277;28;20361;-66
2023/07/11 08:45:54;;;;;;;6.72;3.40;;;28.40;97.60;;;;;;5057409;28;20342;-67
2023/07/11 08:48:27;;;;;;;6.93;3.35;;;28.40;97.80;;;;;;5091238;28;20044;-66
2023/07/11 08:51:19;;;;;;;5.22;3.00;;;28.30;97.70;;;;;;5073392;28;20131;-66
2023/07/11 08:54:20;;;;;;;7.75;3.25;;;28.40;96.50;;;;;;5073287;28;20044;-66
2023/07/11 08:56:49;;;;;;;7.47;3.38;;;28.30;96.60;;;;;;5058754;28;20052;-65
2023/07/11 08:59:26;;;;;;;6.68;3.30;;;28.40;96.20;;;;;;5076943;28;20040;-66
2023/07/11 09:02:43;;;;;;;6.75;3.05;;;28.70;96.20;;;;;;5078719;28;20380;-66
2023/07/11 09:05:20;;;;;;;6.22;2.97;;;28.80;96.20;;;;;;4991668;28;20052;-66
2023/07/11 09:07:46;;;;;;;5.18;2.92;;;28.60;96.00;;;;;;5060234;28;20044;-66
2023/07/11 09:10:41;;;;;;;7.85;3.15;;;28.60;96.40;;;;;;5095194;28;20039;-66
2023/07/11 09:13:29;;;;;;;6.45;3.40;;;28.60;96.10;;;;;;5057274;28;20063;-66
2023/07/11 09:16:31;;;;;;;5.05;2.72;;;28.50;96.20;;;;;;5056822;28;20059;-66
2023/07/11 09:19:14;;;;;;;4.40;2.92;;;28.70;96.40;;;;;;5057143;28;20063;-66
2023/07/11 09:22:08;;;;;;;6.10;3.10;;;28.90;96.80;;;;;;5085112;28;20044;-66
2023/07/11 09:24:50;;;;;;;4.93;3.13;;;29.20;96.40;;;;;;5060186;28;20054;-66
2023/07/11 09:27:16;;;;;;;8.35;2.95;;;29.60;96.60;;;;;;5094566;28;20048;-66
2023/07/11 09:29:46;;;;;;;4.72;2.83;;;29.60;95.30;;;;;;5076816;28;20058;-65
2023/07/11 09:32:13;;;;;;;4.20;2.63;;;29.40;95.00;;;;;;5076277;28;20065;-66
2023/07/11 09:34:46;;;;;;;5.78;2.88;;;29.00;94.50;;;;;;5074347;28;20044;-66
2023/07/11 09:37:28;;;;;;;5.03;2.53;;;29.10;94.70;;;;;;5056694;28;20045;-66
2023/07/11 09:40:13;;;;;;;5.22;2.45;;;28.90;94.70;;;;;;5040183;28;20469;-66
2023/07/11 09:42:47;;;;;;;4.55;2.58;;;28.80;95.20;;;;;;5056431;28;20044;-66
2023/07/11 09:45:22;;;;;;;4.22;2.70;;;28.70;94.90;;;;;;5056608;28;20431;-65
2023/07/11 09:48:11;;;;;;;5.38;2.95;;;28.60;95.10;;;;;;5039821;28;20319;-65
2023/07/11 09:51:02;;;;;;;6.35;3.00;;;28.80;95.50;;;;;;5056477;28;20052;-65
2023/07/11 09:53:31;;;;;;;4.97;2.40;;;28.80;95.30;;;;;;5074136;28;20052;-65
2023/07/11 09:56:00;;;;;;;8.15;3.00;;;28.80;95.40;;;;;;5056254;28;20044;-65
2023/07/11 09:58:32;;;;;;;5.43;2.70;;;28.80;95.30;;;;;;5074168;28;20082;-66
2023/07/11 10:01:03;;;;;;;7.60;3.15;;;28.80;95.50;;;;;;5056087;28;20052;-65
2023/07/11 10:03:34;;;;;;;6.60;2.53;;;28.70;95.10;;;;;;5073970;28;20040;-65
2023/07/11 10:06:03;;;;;;;8.00;3.47;;;28.70;95.10;;;;;;5073820;28;20044;-66
2023/07/11 10:08:34;;;;;;;6.05;2.95;;;28.80;95.40;;;;;;5072621;28;20048;-66
2023/07/11 10:11:07;;;;;;;8.65;2.90;;;28.80;95.50;;;;;;5055695;28;20110;-66
2023/07/11 10:13:33;;;;;;;4.65;2.40;;;28.70;95.30;;;;;;5055822;28;20052;-66
2023/07/11 10:16:00;;;;;;;5.03;2.60;;;28.80;95.40;;;;;;5056141;28;20354;-66
2023/07/11 10:18:34;;;;;;;6.35;2.88;;;29.10;95.30;;;;;;5055339;28;20489;-66
2023/07/11 10:21:12;;;;;;;13.00;3.40;;;29.10;95.20;;;;;;5055434;28;20064;-65
2023/07/11 10:23:46;;;;;;;6.35;3.30;;;29.00;95.20;;;;;;5055791;28;20085;-66
2023/07/11 10:26:37;;;;;;;4.97;2.65;;;28.90;95.20;;;;;;5049711;28;20114;-65
2023/07/11 10:29:11;;;;;;;5.00;2.53;;;28.90;95.40;;;;;;5073619;28;20110;-66
2023/07/11 10:31:44;;;;;;;9.18;3.40;;;28.70;95.00;;;;;;5073330;28;20242;-66
2023/07/11 10:34:29;;;;;;;9.55;3.40;;;28.70;94.80;;;;;;5073080;28;20445;-65
2023/07/11 10:37:04;;;;;;;4.53;2.97;;;28.70;94.40;;;;;;5073081;28;20053;-66
2023/07/11 10:39:49;;;;;;;5.50;2.92;;;28.80;94.80;;;;;;5073140;28;20132;-66
2023/07/11 10:42:38;;;;;;;6.35;2.60;;;28.90;94.50;;;;;;5055033;28;20412;-66
2023/07/11 10:45:13;;;;;;;7.18;3.22;;;28.80;94.60;;;;;;5055600;28;20078;-66
2023/07/11 10:47:59;;;;;;;4.70;2.83;;;28.90;94.50;;;;;;5055012;28;20461;-66
2023/07/11 10:50:34;;;;;;;5.43;2.97;;;28.80;94.10;;;;;;5073022;28;20086;-66
2023/07/11 10:53:13;;;;;;;5.85;2.88;;;28.90;94.30;;;;;;5072810;28;20052;-65
2023/07/11 10:55:48;;;;;;;4.85;2.83;;;29.00;93.90;;;;;;5072947;28;20044;-66
2023/07/11 10:58:18;;;;;;;7.50;3.08;;;29.10;93.90;;;;;;5072455;28;20041;-64
2023/07/11 11:00:55;;;;;;;4.22;2.63;;;28.90;94.00;;;;;;5055015;28;20044;-65
2023/07/11 11:03:36;;;;;;;5.05;2.90;;;29.00;94.20;;;;;;5072928;28;20036;-66
2023/07/11 11:06:11;;;;;;;5.82;2.65;;;29.20;94.30;;;;;;5055291;28;20460;-66
2023/07/11 11:09:00;;;;;;;4.13;2.78;;;29.00;93.80;;;;;;5072632;28;20102;-66
2023/07/11 11:12:00;;;;;;;5.63;2.75;;;29.00;93.90;;;;;;5054241;28;20102;-66
2023/07/11 11:14:52;;;;;;;6.03;2.75;;;29.10;94.20;;;;;;5054738;28;20040;-66
2023/07/11 11:17:27;;;;;;;5.85;3.15;;;29.10;94.30;;;;;;5072242;28;20098;-66
2023/07/11 11:20:06;;;;;;;6.00;3.10;;;29.30;94.30;;;;;;5054337;28;20376;-65
2023/07/11 11:23:00;;;;;;;6.95;2.60;;;29.30;94.40;;;;;;5054736;28;20048;-66
2023/07/11 11:25:50;;;;;;;5.18;3.20;;;29.50;94.60;;;;;;5055007;28;20052;-66
2023/07/11 11:28:48;;;;;;;4.72;2.88;;;29.50;93.90;;;;;;5023933;28;20052;-65
2023/07/11 11:31:27;;;;;;;6.28;3.42;;;29.70;93.70;;;;;;5031013;28;20057;-66
2023/07/11 11:34:16;;;;;;;6.20;2.78;;;29.50;93.50;;;;;;5054300;28;20052;-66
2023/07/11 11:37:30;;;;;;;6.15;3.10;;;29.70;93.60;;;;;;5072697;28;20040;-66
2023/07/11 11:40:18;;;;;;;5.03;2.92;;;29.80;93.60;;;;;;4990439;28;20415;-66
2023/07/11 11:42:50;;;;;;;6.43;3.05;;;29.80;93.50;;;;;;5092172;28;20345;-65
2023/07/11 11:45:21;;;;;;;5.43;2.90;;;29.80;93.40;;;;;;5057697;28;20059;-65
2023/07/11 11:47:50;;;;;;;5.18;2.92;;;29.80;93.30;;;;;;5092009;28;20059;-66
2023/07/11 11:50:19;;;;;;;5.45;2.80;;;29.80;93.30;;;;;;5074011;28;20137;-66
2023/07/11 11:53:15;;;;;;;5.13;3.25;;;29.90;93.30;;;;;;5091969;28;20667;-66
2023/07/11 11:55:58;;;;;;;9.52;3.28;;;29.90;93.30;;;;;;5074190;28;20048;-66
2023/07/11 11:58:27;;;;;;;8.45;3.22;;;30.10;93.40;;;;;;5091692;28;20101;-66
2023/07/11 12:00:55;;;;;;;5.55;3.13;;;30.20;93.50;;;;;;5074170;28;20052;-66
2023/07/11 12:03:35;;;;;;;5.50;3.20;;;30.20;93.00;;;;;;5092092;28;20298;-66
2023/07/11 12:06:22;;;;;;;5.50;3.28;;;30.30;93.10;;;;;;5074281;28;20295;-66
2023/07/11 12:09:18;;;;;;;8.65;3.40;;;30.30;93.20;;;;;;5091879;28;20044;-66
2023/07/11 12:12:08;;;;;;;5.07;2.95;;;30.30;92.90;;;;;;5074022;28;20113;-66
2023/07/11 12:14:49;;;;;;;9.68;3.05;;;30.20;93.10;;;;;;5073988;28;20431;-66
2023/07/11 12:17:46;;;;;;;6.88;3.20;;;30.30;93.50;;;;;;5091603;28;20051;-66
2023/07/11 12:20:20;;;;;;;6.05;3.30;;;30.30;92.70;;;;;;5071377;28;20044;-66
2023/07/11 12:22:46;;;;;;;5.68;3.05;;;30.50;93.30;;;;;;5091769;28;20105;-66
2023/07/11 12:25:13;;;;;;;5.45;3.10;;;30.80;93.50;;;;;;5091918;28;20051;-66
2023/07/11 12:27:39;;;;;;;6.53;3.22;;;31.00;93.40;;;;;;5091633;28;20415;-64
2023/07/11 12:30:14;;;;;;;5.90;3.20;;;30.70;93.20;;;;;;5074624;28;20121;-64
2023/07/11 12:32:50;;;;;;;9.18;3.90;;;30.70;93.30;;;;;;5095810;28;20477;-65
2023/07/11 12:35:22;;;;;;;6.90;2.80;;;30.50;93.50;;;;;;5077679;28;20060;-67
2023/07/11 12:37:51;;;;;;;4.60;2.95;;;30.60;93.50;;;;;;5095230;28;20117;-65
2023/07/11 12:40:32;;;;;;;6.75;3.22;;;30.40;93.40;;;;;;5095881;28;20467;-64
2023/07/11 12:43:03;;;;;;;6.22;3.22;;;30.40;93.60;;;;;;5095592;28;20054;-65
2023/07/11 12:45:39;;;;;;;4.63;3.20;;;29.90;93.70;;;;;;5078318;28;20059;-64
2023/07/11 12:48:13;;;;;;;6.40;2.90;;;30.10;93.90;;;;;;5095144;28;20056;-65
2023/07/11 12:50:53;;;;;;;5.20;2.83;;;30.00;94.20;;;;;;5077461;28;20063;-64
2023/07/11 12:53:19;;;;;;;4.95;2.80;;;29.90;94.10;;;;;;5057549;28;20113;-65
2023/07/11 12:55:49;;;;;;;6.60;2.50;;;29.80;94.20;;;;;;5057968;28;20423;-65
2023/07/11 12:58:22;;;;;;;5.88;2.50;;;29.90;94.30;;;;;;5057181;28;20518;-66
2023/07/11 13:00:50;;;;;;;4.80;2.45;;;29.70;94.20;;;;;;5058895;28;20067;-63
2023/07/11 13:03:31;;;;;;;4.20;2.50;;;29.70;94.60;;;;;;5077475;28;20063;-63
2023/07/11 13:06:00;;;;;;;5.68;2.55;;;29.70;94.50;;;;;;5095273;28;20479;-63
2023/07/11 13:08:32;;;;;;;5.15;2.70;;;29.50;94.00;;;;;;5060215;28;20410;-64